createdAt,value
2022-12-19T00:00:44.710Z,78.74
2022-12-19T00:01:45.218Z,78.96
2022-12-19T00:02:45.512Z,78.96
2022-12-19T00:03:45.835Z,78.74
2022-12-19T00:04:46.144Z,79.06
2022-12-19T00:05:46.534Z,79.06
2022-12-19T00:06:46.849Z,79.06
2022-12-19T00:07:47.223Z,79.06
2022-12-19T00:08:47.595Z,78.85
2022-12-19T00:09:47.952Z,79.02
2022-12-19T00:10:48.402Z,79.16
2022-12-19T00:11:48.685Z,79.38
2022-12-19T00:12:49.069Z,79.38
2022-12-19T00:13:49.421Z,79.38
2022-12-19T00:14:49.756Z,79.69
2022-12-19T00:15:50.182Z,79.69
2022-12-19T00:16:50.505Z,79.69
2022-12-19T00:17:50.917Z,79.69
2022-12-19T00:18:51.263Z,79.55
2022-12-19T00:19:51.575Z,79.55
2022-12-19T00:20:51.981Z,79.75
2022-12-19T00:21:52.311Z,79.55
2022-12-19T00:22:52.695Z,79.34
2022-12-19T00:23:53.082Z,79.44
2022-12-19T00:24:53.455Z,79.44
2022-12-19T00:25:53.901Z,79.55
2022-12-19T00:26:54.189Z,79.65
2022-12-19T00:27:54.576Z,79.55
2022-12-19T00:28:54.917Z,79.65
2022-12-19T00:29:55.289Z,79.86
2022-12-19T00:30:55.704Z,79.75
2022-12-19T00:31:56.039Z,79.75
2022-12-19T00:32:56.362Z,79.65
2022-12-19T00:33:56.716Z,79.55
2022-12-19T00:34:57.101Z,79.41
2022-12-19T00:35:57.475Z,79.75
2022-12-19T00:36:57.813Z,79.86
2022-12-19T00:37:58.190Z,80.18
2022-12-19T00:38:58.563Z,80.07
2022-12-19T00:39:58.939Z,80.07
2022-12-19T00:40:59.318Z,80.28
2022-12-19T00:41:59.687Z,80.28
2022-12-19T00:43:00.028Z,80.38
2022-12-19T00:44:00.404Z,80.28
2022-12-19T00:45:00.741Z,80.28
2022-12-19T00:46:01.149Z,80.24
2022-12-19T00:47:01.423Z,80.24
2022-12-19T00:48:01.811Z,80.24
2022-12-19T00:49:02.174Z,80.35
2022-12-19T00:50:02.507Z,80.14
2022-12-19T00:51:02.914Z,80.14
2022-12-19T00:52:03.247Z,80.04
2022-12-19T00:53:03.583Z,80.04
2022-12-19T00:54:06.826Z,80.04
2022-12-19T00:55:05.106Z,80.04
2022-12-19T00:56:04.723Z,80.14
2022-12-19T00:57:05.063Z,80.14
2022-12-19T00:58:05.428Z,80.14
2022-12-19T00:59:05.802Z,80.14
2022-12-19T01:00:06.180Z,80.14
2022-12-19T01:01:06.626Z,80.14
2022-12-19T01:02:06.976Z,80.14
2022-12-19T01:03:07.279Z,80.14
2022-12-19T01:05:07.955Z,80.04
2022-12-19T01:06:08.334Z,80.04
2022-12-19T01:07:08.683Z,79.90
2022-12-19T01:08:09.086Z,80.10
2022-12-19T01:09:09.433Z,80.24
2022-12-19T01:10:09.812Z,80.56
2022-12-19T01:11:10.230Z,80.56
2022-12-19T01:12:10.528Z,80.46
2022-12-19T01:13:10.873Z,80.42
2022-12-19T01:14:11.247Z,80.31
2022-12-19T01:15:11.591Z,80.31
2022-12-19T01:16:12.022Z,80.63
2022-12-19T01:17:12.307Z,80.63
2022-12-19T01:18:12.634Z,80.63
2022-12-19T01:19:13.005Z,80.63
2022-12-19T01:20:13.376Z,80.63
2022-12-19T01:21:13.767Z,80.63
2022-12-19T01:22:14.142Z,80.52
2022-12-19T01:23:14.494Z,80.63
2022-12-19T01:24:16.312Z,80.63
2022-12-19T01:25:15.212Z,80.73
2022-12-19T01:26:15.602Z,80.63
2022-12-19T01:27:15.883Z,80.63
2022-12-19T01:28:16.278Z,80.73
2022-12-19T01:29:16.613Z,80.52
2022-12-19T01:30:16.987Z,80.42
2022-12-19T01:31:17.396Z,80.42
2022-12-19T01:32:17.714Z,80.63
2022-12-19T01:33:18.077Z,80.63
2022-12-19T01:34:18.462Z,80.63
2022-12-19T01:35:22.068Z,80.63
2022-12-19T01:36:19.165Z,80.73
2022-12-19T01:37:19.509Z,80.73
2022-12-19T01:38:19.821Z,80.73
2022-12-19T01:39:20.178Z,80.83
2022-12-19T01:40:20.533Z,81.04
2022-12-19T01:41:20.912Z,81.04
2022-12-19T01:42:23.475Z,81.04
2022-12-19T01:43:21.606Z,81.04
2022-12-19T01:44:21.919Z,80.90
2022-12-19T01:45:22.268Z,80.80
2022-12-19T01:46:22.682Z,80.80
2022-12-19T01:47:22.950Z,81.12
2022-12-19T01:48:23.312Z,81.43
2022-12-19T01:49:25.143Z,81.63
2022-12-19T01:50:24.009Z,81.85
2022-12-19T01:51:24.369Z,81.85
2022-12-19T01:52:24.719Z,82.79
2022-12-19T01:53:25.074Z,83.10
2022-12-19T01:54:25.480Z,83.62
2022-12-19T01:55:25.781Z,83.73
2022-12-19T01:56:26.101Z,84.36
2022-12-19T01:57:26.447Z,85.09
2022-12-19T01:58:26.805Z,85.09
2022-12-19T01:59:27.171Z,85.51
2022-12-19T02:00:27.549Z,86.04
2022-12-19T02:01:28.104Z,86.04
2022-12-19T02:02:28.358Z,86.45
2022-12-19T02:03:28.563Z,87.29
2022-12-19T02:04:32.654Z,87.60
2022-12-19T02:05:29.294Z,87.96
2022-12-19T02:06:29.613Z,88.27
2022-12-19T02:07:29.933Z,88.79
2022-12-19T02:08:30.297Z,88.69
2022-12-19T02:09:30.648Z,88.79
2022-12-19T02:10:31.004Z,88.90
2022-12-19T02:11:31.376Z,88.79
2022-12-19T02:12:31.733Z,89.42
2022-12-19T02:13:32.098Z,88.79
2022-12-19T02:14:32.458Z,89.11
2022-12-19T02:15:32.835Z,88.75
2022-12-19T02:16:33.235Z,88.65
2022-12-19T02:17:33.495Z,88.65
2022-12-19T02:18:33.847Z,88.54
2022-12-19T02:19:34.212Z,88.44
2022-12-19T02:20:34.550Z,88.34
2022-12-19T02:21:34.937Z,88.34
2022-12-19T02:22:35.255Z,88.75
2022-12-19T02:23:35.618Z,88.65
2022-12-19T02:24:35.989Z,89.07
2022-12-19T02:25:36.335Z,89.07
2022-12-19T02:26:36.722Z,89.07
2022-12-19T02:27:40.094Z,89.38
2022-12-19T02:28:37.394Z,89.28
2022-12-19T02:29:37.749Z,89.70
2022-12-19T02:30:38.103Z,90.01
2022-12-19T02:31:38.485Z,90.22
2022-12-19T02:32:38.811Z,90.43
2022-12-19T02:33:39.164Z,90.43
2022-12-19T02:34:44.248Z,90.64
2022-12-19T02:35:39.860Z,91.06
2022-12-19T02:36:40.462Z,91.16
2022-12-19T02:37:40.630Z,91.06
2022-12-19T02:38:40.956Z,91.37
2022-12-19T02:39:41.277Z,91.69
2022-12-19T02:40:41.651Z,91.89
2022-12-19T02:41:41.997Z,92.10
2022-12-19T02:42:42.361Z,92.42
2022-12-19T02:43:42.712Z,92.42
2022-12-19T02:44:43.066Z,92.63
2022-12-19T02:45:43.482Z,92.42
2022-12-19T02:46:43.787Z,92.31
2022-12-19T02:47:44.108Z,92.63
2022-12-19T02:48:44.466Z,92.83
2022-12-19T02:49:44.826Z,93.36
2022-12-19T02:50:45.230Z,93.36
2022-12-19T02:51:45.664Z,93.26
2022-12-19T02:52:45.860Z,93.46
2022-12-19T02:53:46.254Z,93.26
2022-12-19T02:54:46.559Z,93.57
2022-12-19T02:55:46.907Z,93.88
2022-12-19T02:56:47.391Z,93.99
2022-12-19T02:57:47.629Z,93.78
2022-12-19T02:58:47.941Z,93.99
2022-12-19T02:59:48.300Z,94.30
2022-12-19T03:00:48.676Z,94.51
2022-12-19T03:01:49.117Z,94.82
2022-12-19T03:03:00.807Z,95.03
2022-12-19T03:03:49.704Z,94.93
2022-12-19T03:04:50.064Z,94.82
2022-12-19T03:05:50.384Z,95.03
2022-12-19T03:06:50.755Z,95.14
2022-12-19T03:07:51.143Z,95.35
2022-12-19T03:08:51.447Z,95.56
2022-12-19T03:09:51.797Z,95.66
2022-12-19T03:10:52.169Z,95.98
2022-12-19T03:11:52.535Z,96.19
2022-12-19T03:12:52.854Z,96.29
2022-12-19T03:13:53.221Z,96.19
2022-12-19T03:14:53.583Z,96.39
2022-12-19T03:15:53.958Z,96.61
2022-12-19T03:16:54.407Z,96.50
2022-12-19T03:17:54.655Z,96.50
2022-12-19T03:18:55.000Z,96.39
2022-12-19T03:19:55.358Z,96.29
2022-12-19T03:20:55.730Z,96.35
2022-12-19T03:21:56.092Z,96.56
2022-12-19T03:22:56.446Z,96.66
2022-12-19T03:23:56.797Z,96.45
2022-12-19T03:24:57.154Z,96.56
2022-12-19T03:25:57.530Z,96.56
2022-12-19T03:26:57.936Z,96.66
2022-12-19T03:27:58.229Z,96.66
2022-12-19T03:28:58.596Z,96.66
2022-12-19T03:29:58.912Z,96.56
2022-12-19T03:30:59.307Z,96.66
2022-12-19T03:31:59.639Z,96.88
2022-12-19T03:32:59.953Z,96.98
2022-12-19T03:34:00.344Z,97.08
2022-12-19T03:35:00.652Z,97.08
2022-12-19T03:36:01.015Z,96.98
2022-12-19T03:37:01.392Z,97.19
2022-12-19T03:38:01.713Z,97.08
2022-12-19T03:39:02.059Z,97.19
2022-12-19T03:40:02.428Z,97.08
2022-12-19T03:41:02.785Z,97.19
2022-12-19T03:42:03.153Z,97.39
2022-12-19T03:43:03.468Z,97.50
2022-12-19T03:44:03.830Z,97.61
2022-12-19T03:45:04.185Z,97.71
2022-12-19T03:46:04.594Z,97.81
2022-12-19T03:47:04.917Z,98.02
2022-12-19T03:48:05.233Z,98.02
2022-12-19T03:49:05.579Z,98.02
2022-12-19T03:50:05.915Z,98.13
2022-12-19T03:51:06.263Z,97.92
2022-12-19T03:52:06.643Z,98.02
2022-12-19T03:53:07.000Z,98.13
2022-12-19T03:54:07.360Z,98.24
2022-12-19T03:55:07.708Z,98.24
2022-12-19T03:56:08.067Z,98.34
2022-12-19T03:57:08.427Z,98.34
2022-12-19T03:58:08.767Z,98.44
2022-12-19T03:59:09.146Z,98.44
2022-12-19T04:00:09.504Z,98.44
2022-12-19T04:01:09.929Z,98.44
2022-12-19T04:02:10.386Z,98.29
2022-12-19T04:03:10.598Z,98.39
2022-12-19T04:04:10.869Z,98.39
2022-12-19T04:05:11.229Z,98.50
2022-12-19T04:06:11.588Z,98.61
2022-12-19T04:07:11.967Z,98.61
2022-12-19T04:08:12.324Z,98.50
2022-12-19T04:09:14.076Z,98.61
2022-12-19T04:10:13.039Z,98.50
2022-12-19T04:11:13.354Z,98.50
2022-12-19T04:12:13.729Z,98.61
2022-12-19T04:13:14.104Z,98.39
2022-12-19T04:14:14.432Z,98.39
2022-12-19T04:15:14.782Z,98.39
2022-12-19T04:16:15.182Z,98.39
2022-12-19T04:17:15.527Z,98.39
2022-12-19T04:18:15.887Z,98.39
2022-12-19T04:19:16.212Z,98.50
2022-12-19T04:20:16.600Z,98.61
2022-12-19T04:21:16.913Z,98.50
2022-12-19T04:22:17.303Z,98.50
2022-12-19T04:23:17.646Z,98.50
2022-12-19T04:24:17.987Z,98.46
2022-12-19T04:25:18.350Z,98.35
2022-12-19T04:26:18.699Z,98.25
2022-12-19T04:27:19.152Z,98.25
2022-12-19T04:28:19.415Z,98.25
2022-12-19T04:29:19.775Z,98.25
2022-12-19T04:30:20.156Z,98.25
2022-12-19T04:31:20.525Z,98.25
2022-12-19T04:32:20.846Z,98.46
2022-12-19T04:33:21.164Z,98.46
2022-12-19T04:34:21.546Z,98.35
2022-12-19T04:35:21.892Z,98.35
2022-12-19T04:36:22.232Z,98.46
2022-12-19T04:37:22.615Z,98.46
2022-12-19T04:38:22.948Z,98.56
2022-12-19T04:39:23.280Z,98.67
2022-12-19T04:40:23.594Z,98.67
2022-12-19T04:41:23.949Z,98.77
2022-12-19T04:42:24.381Z,98.77
2022-12-19T04:43:24.652Z,98.67
2022-12-19T04:44:25.020Z,98.67
2022-12-19T04:45:25.351Z,98.67
2022-12-19T04:46:25.783Z,98.77
2022-12-19T04:47:26.085Z,98.88
2022-12-19T04:48:26.444Z,98.98
2022-12-19T04:49:26.787Z,98.98
2022-12-19T04:50:27.147Z,99.08
2022-12-19T04:51:27.507Z,99.29
2022-12-19T04:52:27.869Z,99.40
2022-12-19T04:53:28.215Z,99.51
2022-12-19T04:54:28.566Z,99.51
2022-12-19T04:55:28.912Z,99.51
2022-12-19T04:56:29.275Z,99.51
2022-12-19T04:57:29.651Z,99.61
2022-12-19T04:58:29.994Z,99.71
2022-12-19T04:59:30.344Z,99.82
2022-12-19T05:00:30.695Z,99.99
2022-12-19T05:01:31.133Z,99.99
2022-12-19T05:02:31.653Z,99.99
2022-12-19T05:03:31.753Z,99.99
2022-12-19T05:04:32.074Z,99.99
2022-12-19T05:05:32.431Z,99.99
2022-12-19T05:06:32.776Z,99.99
2022-12-19T05:07:33.175Z,99.99
2022-12-19T05:08:33.488Z,99.99
2022-12-19T05:09:33.848Z,99.99
2022-12-19T05:10:34.201Z,99.99
2022-12-19T05:11:34.557Z,99.99
2022-12-19T05:12:34.937Z,99.99
2022-12-19T05:13:35.249Z,99.99
2022-12-19T05:14:35.599Z,99.99
2022-12-19T05:15:36.009Z,99.99
2022-12-19T05:16:36.289Z,99.99
2022-12-19T05:17:36.662Z,99.99
2022-12-19T05:18:37.007Z,99.99
2022-12-19T05:19:37.365Z,99.99
2022-12-19T05:20:37.723Z,99.99
2022-12-19T05:21:38.087Z,99.99
2022-12-19T05:22:38.456Z,99.99
2022-12-19T05:23:38.818Z,99.99
2022-12-19T05:24:39.181Z,99.99
2022-12-19T05:25:39.507Z,99.99
2022-12-19T05:26:39.873Z,99.99
2022-12-19T05:27:40.255Z,99.99
2022-12-19T05:28:40.570Z,99.99
2022-12-19T05:29:40.925Z,99.99
2022-12-19T05:30:41.293Z,99.99
2022-12-19T05:31:41.703Z,99.99
2022-12-19T05:32:42.014Z,99.99
2022-12-19T05:33:42.331Z,99.99
2022-12-19T05:34:42.685Z,99.99
2022-12-19T05:35:43.069Z,99.99
2022-12-19T05:36:43.385Z,99.99
2022-12-19T05:37:43.763Z,99.99
2022-12-19T05:38:44.116Z,99.99
2022-12-19T05:39:44.476Z,99.99
2022-12-19T05:40:44.813Z,99.99
2022-12-19T05:41:48.775Z,99.99
2022-12-19T05:42:45.525Z,99.99
2022-12-19T05:43:45.876Z,99.99
2022-12-19T05:44:46.252Z,99.99
2022-12-19T05:45:46.572Z,99.99
2022-12-19T05:46:46.988Z,99.99
2022-12-19T05:47:47.292Z,99.99
2022-12-19T05:48:47.598Z,99.99
2022-12-19T05:49:47.966Z,99.99
2022-12-19T05:50:48.323Z,99.99
2022-12-19T05:51:48.683Z,99.99
2022-12-19T05:52:49.045Z,99.99
2022-12-19T05:53:49.389Z,99.99
2022-12-19T05:54:49.758Z,99.99
2022-12-19T05:55:50.105Z,99.99
2022-12-19T05:56:50.470Z,99.99
2022-12-19T05:57:50.858Z,99.99
2022-12-19T05:58:51.176Z,99.99
2022-12-19T05:59:51.533Z,99.99
2022-12-19T06:00:54.022Z,99.99
2022-12-19T06:01:52.355Z,99.99
2022-12-19T06:02:53.341Z,99.99
2022-12-19T06:03:53.055Z,99.99
2022-12-19T06:04:53.274Z,99.99
2022-12-19T06:05:53.627Z,99.99
2022-12-19T06:06:53.978Z,99.99
2022-12-19T06:07:54.363Z,99.99
2022-12-19T06:08:54.683Z,99.99
2022-12-19T06:09:55.033Z,99.99
2022-12-19T06:10:55.394Z,99.99
2022-12-19T06:11:55.746Z,99.99
2022-12-19T06:12:56.121Z,99.99
2022-12-19T06:13:56.467Z,99.99
2022-12-19T06:14:56.819Z,99.99
2022-12-19T06:15:57.230Z,99.99
2022-12-19T06:16:57.515Z,99.99
2022-12-19T06:17:57.891Z,99.99
2022-12-19T06:18:58.198Z,99.99
2022-12-19T06:19:58.554Z,99.99
2022-12-19T06:20:58.908Z,99.99
2022-12-19T06:21:59.262Z,99.99
2022-12-19T06:22:59.608Z,99.99
2022-12-19T06:23:59.725Z,99.99
2022-12-19T06:25:00.124Z,99.99
2022-12-19T06:26:00.470Z,99.99
2022-12-19T06:27:00.826Z,99.99
2022-12-19T06:28:01.231Z,99.99
2022-12-19T06:29:01.572Z,99.99
2022-12-19T06:30:01.902Z,99.99
2022-12-19T06:31:02.238Z,99.99
2022-12-19T06:32:02.634Z,99.99
2022-12-19T06:33:02.966Z,99.99
2022-12-19T06:34:03.306Z,99.99
2022-12-19T06:35:04.840Z,99.99
2022-12-19T06:36:04.018Z,99.99
2022-12-19T06:37:08.073Z,99.99
2022-12-19T06:38:04.783Z,99.99
2022-12-19T06:39:05.045Z,99.99
2022-12-19T06:40:05.393Z,99.99
2022-12-19T06:41:05.762Z,99.99
2022-12-19T06:42:06.107Z,99.99
2022-12-19T06:43:06.476Z,99.99
2022-12-19T06:44:06.839Z,99.99
2022-12-19T06:45:07.187Z,99.99
2022-12-19T06:46:07.580Z,99.99
2022-12-19T06:47:07.899Z,99.99
2022-12-19T06:48:08.267Z,99.99
2022-12-19T06:49:08.617Z,99.99
2022-12-19T06:50:08.983Z,99.99
2022-12-19T06:51:09.358Z,99.99
2022-12-19T06:52:09.707Z,99.99
2022-12-19T06:53:10.062Z,99.99
2022-12-19T06:54:10.418Z,99.99
2022-12-19T06:55:10.757Z,99.99
2022-12-19T06:56:11.098Z,99.99
2022-12-19T06:57:11.440Z,99.99
2022-12-19T06:58:11.710Z,99.99
2022-12-19T06:59:11.953Z,99.99
2022-12-19T07:00:12.270Z,99.99
2022-12-19T07:01:12.591Z,99.99
2022-12-19T07:02:12.962Z,99.99
2022-12-19T07:03:13.180Z,99.99
2022-12-19T07:04:13.429Z,99.99
2022-12-19T07:05:13.681Z,99.99
2022-12-19T07:06:14.028Z,99.99
2022-12-19T07:07:14.244Z,99.99
2022-12-19T07:08:14.584Z,99.99
2022-12-19T07:09:14.847Z,99.99
2022-12-19T07:10:15.183Z,99.99
2022-12-19T07:11:15.439Z,99.99
2022-12-19T07:12:15.670Z,99.99
2022-12-19T07:13:16.070Z,99.99
2022-12-19T07:14:16.174Z,99.99
2022-12-19T07:15:16.305Z,99.99
2022-12-19T07:16:16.647Z,99.99
2022-12-19T07:17:16.865Z,99.99
2022-12-19T07:18:17.178Z,99.99
2022-12-19T07:19:17.428Z,99.99
2022-12-19T07:20:17.751Z,99.99
2022-12-19T07:21:18.029Z,99.99
2022-12-19T07:22:18.263Z,99.99
2022-12-19T07:23:18.480Z,99.99
2022-12-19T07:24:18.768Z,99.99
2022-12-19T07:25:19.040Z,99.99
2022-12-19T07:26:19.315Z,99.99
2022-12-19T07:27:19.599Z,99.99
2022-12-19T07:28:19.943Z,99.99
2022-12-19T07:29:20.171Z,99.99
2022-12-19T07:30:20.345Z,99.99
2022-12-19T07:31:20.663Z,99.99
2022-12-19T07:32:20.928Z,99.99
2022-12-19T07:33:22.134Z,99.99
2022-12-19T07:34:21.513Z,99.99
2022-12-19T07:35:21.661Z,99.99
2022-12-19T07:36:21.944Z,99.99
2022-12-19T07:37:22.225Z,99.99
2022-12-19T07:38:22.524Z,99.99
2022-12-19T07:39:22.681Z,99.99
2022-12-19T07:40:23.108Z,99.99
2022-12-19T07:41:23.276Z,99.99
2022-12-19T07:42:25.235Z,99.99
2022-12-19T07:43:23.760Z,99.99
2022-12-19T07:44:24.028Z,99.99
2022-12-19T07:45:24.339Z,99.99
2022-12-19T07:46:24.689Z,99.99
2022-12-19T07:47:24.939Z,99.99
2022-12-19T07:48:25.871Z,99.99
2022-12-19T07:49:25.407Z,99.99
2022-12-19T07:50:25.602Z,99.99
2022-12-19T07:51:25.747Z,99.99
2022-12-19T07:52:25.939Z,99.99
2022-12-19T07:53:26.250Z,99.99
2022-12-19T07:54:26.403Z,99.99
2022-12-19T07:55:26.591Z,99.99
2022-12-19T07:56:26.771Z,99.99
2022-12-19T07:57:26.942Z,99.99
2022-12-19T07:58:27.225Z,99.99
2022-12-19T07:59:31.337Z,99.99
2022-12-19T08:00:27.662Z,99.99
2022-12-19T08:01:28.281Z,99.99
2022-12-19T08:02:28.149Z,99.99
2022-12-19T08:03:28.406Z,99.99
2022-12-19T08:04:28.467Z,99.99
2022-12-19T08:05:28.644Z,99.99
2022-12-19T08:06:28.838Z,99.99
2022-12-19T08:07:28.980Z,99.99
2022-12-19T08:08:29.204Z,99.99
2022-12-19T08:09:29.339Z,99.99
2022-12-19T08:10:29.512Z,99.99
2022-12-19T08:11:29.797Z,99.99
2022-12-19T08:12:29.975Z,99.99
2022-12-19T08:13:37.268Z,99.99
2022-12-19T08:14:30.325Z,99.99
2022-12-19T08:15:30.485Z,99.99
2022-12-19T08:16:30.830Z,99.99
2022-12-19T08:17:31.001Z,99.99
2022-12-19T08:18:31.143Z,99.99
2022-12-19T08:19:31.323Z,99.99
2022-12-19T08:20:31.479Z,99.99
2022-12-19T08:21:31.647Z,99.99
2022-12-19T08:22:31.825Z,99.99
2022-12-19T08:23:32.123Z,99.99
2022-12-19T08:24:32.331Z,99.99
2022-12-19T08:25:32.454Z,99.99
2022-12-19T08:26:39.364Z,99.99
2022-12-19T08:27:32.805Z,99.99
2022-12-19T08:28:33.011Z,99.99
2022-12-19T08:29:33.265Z,99.99
2022-12-19T08:30:33.452Z,99.99
2022-12-19T08:31:33.602Z,99.99
2022-12-19T08:32:33.771Z,99.99
2022-12-19T08:33:33.965Z,99.99
2022-12-19T08:34:34.127Z,99.99
2022-12-19T08:35:34.305Z,99.99
2022-12-19T08:36:34.465Z,99.99
2022-12-19T08:37:34.691Z,99.99
2022-12-19T08:38:34.810Z,99.99
2022-12-19T08:39:34.966Z,99.99
2022-12-19T08:40:35.142Z,99.99
2022-12-19T08:41:35.320Z,99.99
2022-12-19T08:42:35.595Z,99.99
2022-12-19T08:43:35.808Z,99.99
2022-12-19T08:44:36.104Z,99.99
2022-12-19T08:45:36.276Z,99.99
2022-12-19T08:46:36.472Z,99.99
2022-12-19T08:47:36.707Z,99.99
2022-12-19T08:48:36.902Z,99.99
2022-12-19T08:49:37.072Z,99.99
2022-12-19T08:50:37.223Z,99.99
2022-12-19T08:51:37.619Z,99.99
2022-12-19T08:52:37.716Z,99.99
2022-12-19T08:53:37.892Z,99.99
2022-12-19T08:54:38.042Z,99.99
2022-12-19T08:55:38.218Z,99.99
2022-12-19T08:56:38.384Z,99.99
2022-12-19T08:57:38.682Z,99.99
2022-12-19T08:58:38.909Z,99.99
2022-12-19T08:59:39.038Z,99.99
2022-12-19T09:00:39.210Z,99.99
2022-12-19T09:01:39.518Z,99.99
2022-12-19T09:02:39.946Z,99.99
2022-12-19T09:04:19.049Z,99.99
2022-12-19T09:06:08.211Z,99.99
2022-12-19T09:06:18.742Z,99.99
2022-12-19T09:07:15.708Z,99.99
2022-12-19T09:08:13.910Z,99.99
2022-12-19T09:09:14.118Z,99.99
2022-12-19T09:10:14.306Z,99.99
2022-12-19T09:11:14.567Z,99.99
2022-12-19T09:12:14.766Z,99.99
2022-12-19T09:13:14.913Z,99.99
2022-12-19T09:14:15.118Z,99.99
2022-12-19T09:15:15.302Z,99.99
2022-12-19T09:16:15.652Z,99.99
2022-12-19T09:17:15.993Z,99.99
2022-12-19T09:18:16.045Z,99.99
2022-12-19T09:19:16.234Z,99.99
2022-12-19T09:20:22.775Z,99.99
2022-12-19T09:21:16.706Z,99.99
2022-12-19T09:22:16.907Z,99.99
2022-12-19T09:23:17.046Z,99.99
2022-12-19T09:24:17.251Z,99.99
2022-12-19T09:25:17.413Z,99.99
2022-12-19T09:26:17.643Z,99.99
2022-12-19T09:27:17.789Z,99.99
2022-12-19T09:28:27.309Z,99.99
2022-12-19T09:29:20.990Z,99.99
2022-12-19T09:30:18.430Z,99.99
2022-12-19T09:31:18.714Z,99.99
2022-12-19T09:32:18.909Z,99.99
2022-12-19T09:33:19.081Z,99.99
2022-12-19T09:34:20.141Z,99.99
2022-12-19T09:35:19.457Z,99.99
2022-12-19T09:36:19.627Z,99.99
2022-12-19T09:37:19.791Z,99.99
2022-12-19T09:38:19.973Z,99.99
2022-12-19T09:39:20.157Z,99.99
2022-12-19T09:40:20.323Z,99.99
2022-12-19T09:41:20.507Z,99.99
2022-12-19T09:42:20.705Z,99.99
2022-12-19T09:43:20.873Z,99.99
2022-12-19T09:44:21.197Z,99.99
2022-12-19T09:45:29.487Z,99.99
2022-12-19T09:46:21.756Z,99.99
2022-12-19T09:47:21.841Z,99.99
2022-12-19T09:48:24.014Z,99.99
2022-12-19T09:49:22.442Z,99.99
2022-12-19T09:50:22.602Z,99.99
2022-12-19T09:51:22.910Z,99.99
2022-12-19T09:52:23.089Z,99.99
2022-12-19T09:53:23.391Z,99.99
2022-12-19T09:54:23.504Z,99.99
2022-12-19T09:55:23.767Z,99.99
2022-12-19T09:56:24.048Z,99.99
2022-12-19T09:57:24.232Z,99.99
2022-12-19T09:58:24.408Z,99.99
2022-12-19T09:59:28.364Z,99.99
2022-12-19T10:00:24.898Z,99.99
2022-12-19T10:01:25.317Z,99.99
2022-12-19T10:02:25.693Z,99.99
2022-12-19T10:03:25.699Z,99.99
2022-12-19T10:04:25.880Z,99.99
2022-12-19T10:05:52.101Z,99.99
2022-12-19T10:07:52.981Z,99.99
2022-12-19T10:08:10.570Z,99.99
2022-12-19T10:08:31.422Z,99.99
2022-12-19T10:11:36.787Z,99.99
2022-12-19T10:12:52.383Z,99.99
2022-12-19T10:12:59.574Z,99.99
2022-12-19T10:13:56.777Z,99.99
2022-12-19T10:14:57.106Z,99.99
2022-12-19T10:16:00.635Z,99.99
2022-12-19T10:17:23.260Z,99.99
2022-12-19T10:17:57.746Z,99.99
2022-12-19T10:18:58.038Z,99.99
2022-12-19T10:19:58.340Z,99.99
2022-12-19T10:20:58.509Z,99.99
2022-12-19T10:22:17.912Z,99.99
2022-12-19T10:22:58.997Z,99.99
2022-12-19T10:23:59.312Z,99.99
2022-12-19T10:25:09.009Z,99.99
2022-12-19T10:25:59.794Z,99.99
2022-12-19T10:27:00.086Z,99.99
2022-12-19T10:28:00.731Z,99.99
2022-12-19T10:29:00.664Z,99.99
2022-12-19T10:30:01.013Z,99.99
2022-12-19T10:31:07.292Z,99.99
2022-12-19T10:32:01.598Z,99.99
2022-12-19T10:33:01.746Z,99.99
2022-12-19T10:34:02.047Z,99.99
2022-12-19T10:35:03.318Z,99.99
2022-12-19T10:36:03.024Z,99.99
2022-12-19T10:37:27.553Z,99.99
2022-12-19T10:38:03.030Z,99.99
2022-12-19T10:39:03.359Z,99.99
2022-12-19T10:40:03.643Z,99.99
2022-12-19T10:41:04.292Z,99.99
2022-12-19T10:42:04.045Z,99.99
2022-12-19T10:43:10.865Z,99.99
2022-12-19T10:44:04.353Z,99.99
2022-12-19T10:45:04.535Z,99.99
2022-12-19T10:46:04.742Z,99.99
2022-12-19T10:47:05.061Z,99.99
2022-12-19T10:48:05.290Z,99.99
2022-12-19T10:49:05.608Z,99.99
2022-12-19T10:50:09.734Z,99.99
2022-12-19T10:51:07.091Z,99.99
2022-12-19T10:52:06.372Z,99.99
2022-12-19T10:53:06.582Z,99.99
2022-12-19T10:54:07.297Z,99.99
2022-12-19T10:55:06.924Z,99.99
2022-12-19T10:56:07.105Z,99.99
2022-12-19T10:57:07.408Z,99.99
2022-12-19T10:58:07.651Z,99.99
2022-12-19T10:59:07.908Z,99.99
2022-12-19T11:00:08.114Z,99.99
2022-12-19T11:01:08.387Z,99.99
2022-12-19T11:02:11.615Z,99.99
2022-12-19T11:03:09.047Z,99.99
2022-12-19T11:04:09.050Z,99.99
2022-12-19T11:05:09.333Z,99.99
2022-12-19T11:06:09.408Z,99.99
2022-12-19T11:07:09.594Z,99.99
2022-12-19T11:08:09.798Z,99.99
2022-12-19T11:09:09.981Z,99.99
2022-12-19T11:10:47.281Z,99.99
2022-12-19T11:16:30.215Z,99.99
2022-12-19T11:29:32.717Z,99.99
2022-12-19T11:32:42.887Z,99.99
2022-12-19T11:33:40.102Z,99.99
2022-12-19T11:34:40.288Z,99.99
2022-12-19T11:35:40.476Z,99.99
2022-12-19T11:36:40.788Z,99.99
2022-12-19T11:37:41.078Z,99.99
2022-12-19T11:38:41.268Z,99.99
2022-12-19T11:39:41.426Z,99.99
2022-12-19T11:40:48.448Z,99.99
2022-12-19T11:41:41.769Z,99.99
2022-12-19T11:42:41.958Z,99.99
2022-12-19T11:43:44.640Z,99.99
2022-12-19T11:44:42.310Z,99.99
2022-12-19T11:45:43.885Z,99.99
2022-12-19T11:46:42.903Z,99.99
2022-12-19T11:47:43.097Z,99.99
2022-12-19T11:48:43.301Z,99.99
2022-12-19T11:49:43.583Z,99.99
2022-12-19T11:50:43.767Z,99.99
2022-12-19T11:51:43.961Z,99.99
2022-12-19T11:53:44.356Z,99.99
2022-12-19T11:54:44.503Z,99.99
2022-12-19T11:55:44.701Z,99.99
2022-12-19T11:56:44.878Z,99.99
2022-12-19T11:57:45.071Z,99.99
2022-12-19T11:58:45.289Z,99.99
2022-12-19T11:59:45.410Z,99.99
2022-12-19T12:00:45.736Z,99.99
2022-12-19T12:01:45.943Z,99.99
2022-12-19T12:02:46.153Z,99.99
2022-12-19T12:03:54.755Z,99.99
2022-12-19T12:04:46.608Z,99.99
2022-12-19T12:05:46.761Z,99.99
2022-12-19T12:06:46.968Z,99.99
2022-12-19T12:08:48.154Z,99.99
2022-12-19T12:13:45.207Z,99.99
2022-12-19T12:31:27.246Z,99.99
2022-12-19T12:35:42.373Z,99.99
2022-12-19T12:38:25.010Z,99.99
2022-12-19T12:39:04.116Z,99.99
2022-12-19T12:40:04.092Z,99.99
2022-12-19T12:41:04.272Z,99.99
2022-12-19T12:42:04.491Z,99.99
2022-12-19T12:43:04.654Z,99.99
2022-12-19T12:44:04.969Z,99.99
2022-12-19T12:45:05.137Z,99.99
2022-12-19T12:46:05.583Z,99.99
2022-12-19T12:47:05.626Z,99.99
2022-12-19T12:48:05.931Z,99.99
2022-12-19T12:49:06.261Z,99.99
2022-12-19T12:50:06.409Z,99.99
2022-12-19T12:51:06.702Z,99.99
2022-12-19T12:52:06.910Z,99.99
2022-12-19T12:53:07.198Z,99.99
2022-12-19T12:54:07.797Z,99.99
2022-12-19T12:55:07.671Z,99.99
2022-12-19T12:56:08.497Z,99.99
2022-12-19T12:57:08.153Z,99.99
2022-12-19T12:58:13.593Z,99.99
2022-12-19T12:59:08.783Z,99.99
2022-12-19T13:00:09.036Z,99.99
2022-12-19T13:01:09.163Z,99.99
2022-12-19T13:02:09.545Z,99.99
2022-12-19T13:03:09.591Z,99.99
2022-12-19T13:04:09.631Z,99.99
2022-12-19T13:05:09.788Z,99.99
2022-12-19T13:06:09.984Z,99.99
2022-12-19T13:07:10.288Z,99.99
2022-12-19T13:08:10.469Z,99.99
2022-12-19T13:09:10.996Z,99.99
2022-12-19T13:10:10.955Z,99.99
2022-12-19T13:11:11.130Z,99.99
2022-12-19T13:12:11.325Z,99.99
2022-12-19T13:13:15.664Z,99.99
2022-12-19T13:14:11.732Z,99.99
2022-12-19T13:15:11.885Z,99.99
2022-12-19T13:16:12.131Z,99.99
2022-12-19T13:17:12.319Z,99.99
2022-12-19T13:18:12.407Z,99.99
2022-12-19T13:19:18.427Z,99.99
2022-12-19T13:20:12.899Z,99.99
2022-12-19T13:21:13.101Z,99.99
2022-12-19T13:22:13.356Z,99.99
2022-12-19T13:23:13.548Z,99.99
2022-12-19T13:24:16.037Z,99.99
2022-12-19T13:25:14.052Z,99.99
2022-12-19T13:26:19.597Z,99.99
2022-12-19T13:27:14.539Z,99.99
2022-12-19T13:28:14.831Z,99.99
2022-12-19T13:29:15.694Z,99.99
2022-12-19T13:30:15.364Z,99.99
2022-12-19T13:31:19.903Z,99.99
2022-12-19T13:32:15.709Z,99.99
2022-12-19T13:33:15.865Z,99.99
2022-12-19T13:34:16.080Z,99.99
2022-12-19T13:36:26.695Z,99.99
2022-12-19T13:40:11.131Z,99.99
2022-12-19T13:40:20.593Z,99.99
2022-12-19T13:41:07.958Z,99.99
2022-12-19T13:42:08.150Z,99.99
2022-12-19T13:43:11.360Z,99.99
2022-12-19T13:44:08.522Z,99.99
2022-12-19T13:45:08.689Z,99.99
2022-12-19T13:46:08.904Z,99.99
2022-12-19T13:47:09.127Z,99.99
2022-12-19T13:48:09.307Z,99.99
2022-12-19T13:49:09.491Z,99.99